createdAt,value
2022-08-20T00:01:29.456Z,19.18
2022-08-20T00:03:34.691Z,19.17
2022-08-20T00:05:40.049Z,19.21
2022-08-20T00:07:41.595Z,19.25
2022-08-20T00:09:43.883Z,19.28
2022-08-20T00:11:45.395Z,19.27
2022-08-20T00:13:49.854Z,19.28
2022-08-20T00:15:52.665Z,19.30
2022-08-20T00:17:55.096Z,19.32
2022-08-20T00:19:56.780Z,19.32
2022-08-20T00:21:58.654Z,19.31
2022-08-20T00:24:00.223Z,19.31
2022-08-20T00:26:01.777Z,19.32
2022-08-20T00:28:03.981Z,19.33
2022-08-20T00:30:10.197Z,19.33
2022-08-20T00:32:11.738Z,19.29
2022-08-20T00:34:13.245Z,19.26
2022-08-20T00:36:17.530Z,19.24
2022-08-20T00:38:19.467Z,19.20
2022-08-20T00:40:25.100Z,19.16
2022-08-20T00:42:26.670Z,19.13
2022-08-20T00:44:28.959Z,19.07
2022-08-20T00:46:31.968Z,19.00
2022-08-20T00:48:38.418Z,18.95
2022-08-20T00:50:39.963Z,18.86
2022-08-20T00:52:49.799Z,18.83
2022-08-20T00:55:00.691Z,18.76
2022-08-20T00:57:09.741Z,18.67
2022-08-20T00:59:15.004Z,18.70
2022-08-20T01:01:16.977Z,18.65
2022-08-20T01:03:20.446Z,18.65
2022-08-20T01:05:23.615Z,18.69
2022-08-20T01:07:34.846Z,18.71
2022-08-20T01:09:57.553Z,18.72
2022-08-20T01:12:00.686Z,18.73
2022-08-20T01:14:24.023Z,18.73
2022-08-20T01:16:31.379Z,18.73
2022-08-20T01:18:32.966Z,18.76
2022-08-20T01:20:39.677Z,18.76
2022-08-20T01:23:11.890Z,18.79
2022-08-20T01:25:23.840Z,18.74
2022-08-20T01:27:25.653Z,18.73
2022-08-20T01:29:31.779Z,18.76
2022-08-20T01:31:36.531Z,18.76
2022-08-20T01:33:38.089Z,18.77
2022-08-20T01:35:41.860Z,18.82
2022-08-20T01:37:43.340Z,18.82
2022-08-20T01:39:44.918Z,18.83
2022-08-20T01:41:49.152Z,18.82
2022-08-20T01:43:56.940Z,18.89
2022-08-20T01:46:00.175Z,18.94
2022-08-20T01:48:01.732Z,18.99
2022-08-20T01:50:16.364Z,19.05
2022-08-20T01:52:41.389Z,19.09
2022-08-20T01:54:43.209Z,19.09
2022-08-20T01:57:15.689Z,19.06
2022-08-20T01:59:17.354Z,19.00
2022-08-20T02:01:46.439Z,18.95
2022-08-20T02:03:49.016Z,18.93
2022-08-20T02:05:50.589Z,18.91
2022-08-20T02:07:52.140Z,18.91
2022-08-20T02:09:53.663Z,18.88
2022-08-20T02:11:57.578Z,18.87
2022-08-20T02:13:59.204Z,18.87
2022-08-20T02:16:00.946Z,18.90
2022-08-20T02:18:08.371Z,18.96
2022-08-20T02:20:15.685Z,19.00
2022-08-20T02:22:22.163Z,19.00
2022-08-20T02:24:23.778Z,18.92
2022-08-20T02:26:26.842Z,18.89
2022-08-20T02:28:28.333Z,18.88
2022-08-20T02:30:34.862Z,18.89
2022-08-20T02:32:40.258Z,18.91
2022-08-20T02:34:42.016Z,18.94
2022-08-20T02:36:46.148Z,18.97
2022-08-20T02:38:47.736Z,18.99
2022-08-20T02:40:50.024Z,19.01
2022-08-20T02:42:51.925Z,19.02
2022-08-20T02:44:54.511Z,19.02
2022-08-20T02:46:56.060Z,19.03
2022-08-20T02:48:58.261Z,19.04
2022-08-20T02:51:02.777Z,19.04
2022-08-20T02:53:04.284Z,19.05
2022-08-20T02:55:06.166Z,19.06
2022-08-20T02:57:13.432Z,19.06
2022-08-20T02:59:19.721Z,19.05
2022-08-20T03:01:21.706Z,19.06
2022-08-20T03:03:24.160Z,19.08
2022-08-20T03:05:25.883Z,19.08
2022-08-20T03:07:27.449Z,19.06
2022-08-20T03:09:28.938Z,19.05
2022-08-20T03:11:31.567Z,19.04
2022-08-20T03:13:33.821Z,19.05
2022-08-20T03:15:35.317Z,19.07
2022-08-20T03:17:37.472Z,19.06
2022-08-20T03:19:39.105Z,19.07
2022-08-20T03:21:40.780Z,19.08
2022-08-20T03:23:43.153Z,19.08
2022-08-20T03:25:45.277Z,19.07
2022-08-20T03:27:47.317Z,19.07
2022-08-20T03:29:55.682Z,19.04
2022-08-20T03:31:57.811Z,19.02
2022-08-20T03:33:59.460Z,19.00
2022-08-20T03:36:01.029Z,18.98
2022-08-20T03:38:08.060Z,18.96
2022-08-20T03:40:16.347Z,18.95
2022-08-20T03:42:17.876Z,18.94
2022-08-20T03:44:19.389Z,18.95
2022-08-20T03:46:23.052Z,18.92
2022-08-20T03:48:25.718Z,18.91
2022-08-20T03:50:30.065Z,18.90
2022-08-20T03:52:31.653Z,18.89
2022-08-20T03:54:33.238Z,18.89
2022-08-20T03:56:34.715Z,18.90
2022-08-20T03:58:36.518Z,18.92
2022-08-20T04:00:45.961Z,18.94
2022-08-20T04:02:47.621Z,18.94
2022-08-20T04:04:49.144Z,18.92
2022-08-20T04:06:50.723Z,18.93
2022-08-20T04:08:54.080Z,18.91
2022-08-20T04:10:59.767Z,18.92
2022-08-20T04:13:01.690Z,18.93
2022-08-20T04:15:03.559Z,18.92
2022-08-20T04:17:10.618Z,18.93
2022-08-20T04:19:12.120Z,18.92
2022-08-20T04:21:13.796Z,18.95
2022-08-20T04:23:15.656Z,18.92
2022-08-20T04:25:17.173Z,18.90
2022-08-20T04:27:19.361Z,18.88
2022-08-20T04:29:22.654Z,18.89
2022-08-20T04:31:33.335Z,18.91
2022-08-20T04:33:35.413Z,18.90
2022-08-20T04:35:37.502Z,18.93
2022-08-20T04:37:39.589Z,18.95
2022-08-20T04:39:41.172Z,18.96
2022-08-20T04:41:42.901Z,18.97
2022-08-20T04:43:44.419Z,19.00
2022-08-20T04:45:46.647Z,19.02
2022-08-20T04:47:49.625Z,19.05
2022-08-20T04:49:51.209Z,19.06
2022-08-20T04:51:59.420Z,19.08
2022-08-20T04:54:02.585Z,19.10
2022-08-20T04:56:04.437Z,19.10
2022-08-20T04:58:09.635Z,19.14
2022-08-20T05:00:16.161Z,19.16
2022-08-20T05:02:19.095Z,19.14
2022-08-20T05:04:20.668Z,19.14
2022-08-20T05:06:25.771Z,19.14
2022-08-20T05:08:27.956Z,19.13
2022-08-20T05:10:30.062Z,19.13
2022-08-20T05:12:31.562Z,19.13
2022-08-20T05:14:33.126Z,19.14
2022-08-20T05:16:38.132Z,19.14
2022-08-20T05:18:39.758Z,19.17
2022-08-20T05:20:42.324Z,19.21
2022-08-20T05:22:44.401Z,19.23
2022-08-20T05:24:45.928Z,19.24
2022-08-20T05:26:47.597Z,19.26
2022-08-20T05:28:54.146Z,19.26
2022-08-20T05:31:02.344Z,19.25
2022-08-20T05:33:06.033Z,19.26
2022-08-20T05:35:10.300Z,19.28
2022-08-20T05:37:11.818Z,19.32
2022-08-20T05:39:14.463Z,19.34
2022-08-20T05:41:28.435Z,19.32
2022-08-20T05:43:33.472Z,19.31
2022-08-20T05:45:39.301Z,19.30
2022-08-20T05:47:42.722Z,19.31
2022-08-20T05:49:46.393Z,19.35
2022-08-20T05:51:49.336Z,19.38
2022-08-20T05:53:50.826Z,19.43
2022-08-20T05:55:53.433Z,19.52
2022-08-20T05:58:00.121Z,19.55
2022-08-20T06:00:05.019Z,19.57
2022-08-20T06:02:26.850Z,19.59
2022-08-20T06:04:29.709Z,19.65
2022-08-20T06:06:44.235Z,19.65
2022-08-20T06:08:48.257Z,19.67
2022-08-20T06:10:49.791Z,19.69
2022-08-20T06:12:53.180Z,19.77
2022-08-20T06:14:54.699Z,19.79
2022-08-20T06:17:02.890Z,19.83
2022-08-20T06:19:05.858Z,19.83
2022-08-20T06:21:07.385Z,19.80
2022-08-20T06:23:09.362Z,19.86
2022-08-20T06:25:11.028Z,19.89
2022-08-20T06:27:15.900Z,19.91
2022-08-20T06:29:17.417Z,19.81
2022-08-20T06:31:18.950Z,19.80
2022-08-20T06:33:20.524Z,19.79
2022-08-20T06:35:22.131Z,19.83
2022-08-20T06:37:31.110Z,19.81
2022-08-20T06:39:33.449Z,19.74
2022-08-20T06:41:36.931Z,19.75
2022-08-20T06:43:38.706Z,19.75
2022-08-20T06:45:40.470Z,19.67
2022-08-20T06:47:45.080Z,19.67
2022-08-20T06:49:47.653Z,19.70
2022-08-20T06:51:51.935Z,19.69
2022-08-20T06:53:53.793Z,19.72
2022-08-20T06:55:57.933Z,19.76
2022-08-20T06:58:06.378Z,19.81
2022-08-20T07:00:13.612Z,19.90
2022-08-20T07:02:15.267Z,19.87
2022-08-20T07:04:17.118Z,19.88
2022-08-20T07:06:19.022Z,19.92
2022-08-20T07:08:22.080Z,19.97
2022-08-20T07:10:25.246Z,19.95
2022-08-20T07:12:26.850Z,19.98
2022-08-20T07:14:28.402Z,19.99
2022-08-20T07:16:30.069Z,19.97
2022-08-20T07:18:31.909Z,19.98
2022-08-20T07:20:36.244Z,19.98
2022-08-20T07:22:37.853Z,19.98
2022-08-20T07:24:41.524Z,19.96
2022-08-20T07:26:44.085Z,19.94
2022-08-20T07:28:46.507Z,20.06
2022-08-20T07:31:13.651Z,20.10
2022-08-20T07:33:17.640Z,20.01
2022-08-20T07:35:20.104Z,20.05
2022-08-20T07:37:23.798Z,20.05
2022-08-20T07:39:25.690Z,20.10
2022-08-20T07:41:27.593Z,20.14
2022-08-20T07:43:29.561Z,20.14
2022-08-20T07:45:31.343Z,20.06
2022-08-20T07:47:36.053Z,20.06
2022-08-20T07:49:39.320Z,20.17
2022-08-20T07:51:41.067Z,20.25
2022-08-20T07:53:42.711Z,20.28
2022-08-20T07:55:51.148Z,20.27
2022-08-20T07:58:08.400Z,20.30
2022-08-20T08:00:12.253Z,20.36
2022-08-20T08:02:13.726Z,20.35
2022-08-20T08:04:16.019Z,20.40
2022-08-20T08:06:29.518Z,20.44
2022-08-20T08:08:33.114Z,20.46
2022-08-20T08:10:36.648Z,20.54
2022-08-20T08:12:43.017Z,20.56
2022-08-20T08:14:46.477Z,20.48
2022-08-20T08:16:47.994Z,20.44
2022-08-20T08:18:56.343Z,20.37
2022-08-20T08:20:58.013Z,20.45
2022-08-20T08:22:59.766Z,20.45
2022-08-20T08:25:02.553Z,20.28
2022-08-20T08:27:04.635Z,20.32
2022-08-20T08:29:08.890Z,20.32
2022-08-20T08:31:11.967Z,20.34
2022-08-20T08:33:29.008Z,20.45
2022-08-20T08:35:34.041Z,20.48
2022-08-20T08:37:37.683Z,20.45
2022-08-20T08:39:39.244Z,20.19
2022-08-20T08:41:49.475Z,20.11
2022-08-20T08:43:53.532Z,20.12
2022-08-20T08:46:01.546Z,20.20
2022-08-20T08:48:04.008Z,20.38
2022-08-20T08:50:09.763Z,20.56
2022-08-20T08:52:14.679Z,20.53
2022-08-20T08:54:22.236Z,20.55
2022-08-20T08:56:27.235Z,20.84
2022-08-20T08:58:29.057Z,21.13
2022-08-20T09:00:30.640Z,21.19
2022-08-20T09:02:33.657Z,21.06
2022-08-20T09:04:39.688Z,21.18
2022-08-20T09:06:43.454Z,21.25
2022-08-20T09:08:55.303Z,21.28
2022-08-20T09:11:05.276Z,21.30
2022-08-20T09:13:07.320Z,21.42
2022-08-20T09:15:09.208Z,21.35
2022-08-20T09:17:10.723Z,21.45
2022-08-20T09:19:12.505Z,21.57
2022-08-20T09:21:14.550Z,21.62
2022-08-20T09:23:16.351Z,21.57
2022-08-20T09:25:18.782Z,21.46
2022-08-20T09:27:20.357Z,21.55
2022-08-20T09:29:21.837Z,21.75
2022-08-20T09:31:24.356Z,21.81
2022-08-20T09:33:26.032Z,21.78
2022-08-20T09:35:28.616Z,21.66
2022-08-20T09:37:36.619Z,21.81
2022-08-20T09:39:39.366Z,22.01
2022-08-20T09:41:41.443Z,22.00
2022-08-20T09:43:43.011Z,22.04
2022-08-20T09:45:44.521Z,22.18
2022-08-20T09:47:56.608Z,22.31
2022-08-20T09:49:58.800Z,22.26
2022-08-20T09:52:01.472Z,22.07
2022-08-20T09:54:03.112Z,22.09
2022-08-20T09:56:04.799Z,22.09
2022-08-20T09:58:15.759Z,22.13
2022-08-20T10:00:18.122Z,22.14
2022-08-20T10:02:19.719Z,22.18
2022-08-20T10:04:21.369Z,22.27
2022-08-20T10:06:23.046Z,22.51
2022-08-20T10:08:24.547Z,22.59
2022-08-20T10:10:26.451Z,22.53
2022-08-20T10:12:28.243Z,22.50
2022-08-20T10:14:29.825Z,22.52
2022-08-20T10:16:31.903Z,22.50
2022-08-20T10:18:34.952Z,22.40
2022-08-20T10:20:36.792Z,22.35
2022-08-20T10:22:38.462Z,22.47
2022-08-20T10:24:40.014Z,22.43
2022-08-20T10:26:41.594Z,22.44
2022-08-20T10:28:44.065Z,22.51
2022-08-20T10:30:45.565Z,22.57
2022-08-20T10:32:47.575Z,22.62
2022-08-20T10:34:49.145Z,22.76
2022-08-20T10:36:50.721Z,22.91
2022-08-20T10:38:52.415Z,23.20
2022-08-20T10:40:53.956Z,23.38
2022-08-20T10:42:55.520Z,23.54
2022-08-20T10:44:57.006Z,23.42
2022-08-20T10:46:58.920Z,23.44
2022-08-20T10:49:00.448Z,23.43
2022-08-20T10:51:01.955Z,23.54
2022-08-20T10:53:03.625Z,23.76
2022-08-20T10:55:05.646Z,24.03
2022-08-20T10:57:07.901Z,24.38
2022-08-20T10:59:09.395Z,24.49
2022-08-20T11:01:11.026Z,24.43
2022-08-20T11:03:12.893Z,24.51
2022-08-20T11:05:14.490Z,24.43
2022-08-20T11:07:55.227Z,24.65
2022-08-20T11:09:47.975Z,24.62
2022-08-20T11:11:49.451Z,24.90
2022-08-20T11:13:50.967Z,24.83
2022-08-20T11:15:52.832Z,25.32
2022-08-20T11:17:55.325Z,25.35
2022-08-20T11:19:58.829Z,25.05
2022-08-20T11:22:00.373Z,25.12
2022-08-20T11:24:03.087Z,25.60
2022-08-20T11:26:05.038Z,26.02
2022-08-20T11:28:07.204Z,26.29
2022-08-20T11:30:12.474Z,25.91
2022-08-20T11:32:14.044Z,25.85
2022-08-20T11:34:15.568Z,25.60
2022-08-20T11:36:17.058Z,25.99
2022-08-20T11:38:19.391Z,26.25
2022-08-20T11:40:21.649Z,26.18
2022-08-20T11:42:23.192Z,26.11
2022-08-20T11:44:24.781Z,25.79
2022-08-20T11:46:28.597Z,25.78
2022-08-20T11:48:30.315Z,25.93
2022-08-20T11:50:31.969Z,25.85
2022-08-20T11:52:34.137Z,25.80
2022-08-20T11:54:40.376Z,25.61
2022-08-20T11:56:42.278Z,25.65
2022-08-20T11:58:47.812Z,25.73
2022-08-20T12:00:49.509Z,25.66
2022-08-20T12:02:52.275Z,25.21
2022-08-20T12:04:55.105Z,25.15
2022-08-20T12:06:56.572Z,24.81
2022-08-20T12:09:02.426Z,24.35
2022-08-20T12:11:04.486Z,24.17
2022-08-20T12:13:07.121Z,24.03
2022-08-20T12:15:10.638Z,24.15
2022-08-20T12:17:19.620Z,24.39
2022-08-20T12:19:21.161Z,24.71
2022-08-20T12:21:22.760Z,24.76
2022-08-20T12:23:24.266Z,24.55
2022-08-20T12:25:26.372Z,24.23
2022-08-20T12:27:30.826Z,24.21
2022-08-20T12:29:33.564Z,24.32
2022-08-20T12:31:35.029Z,24.32
2022-08-20T12:33:36.572Z,24.65
2022-08-20T12:35:38.143Z,24.39
2022-08-20T12:37:40.698Z,24.09
2022-08-20T12:39:47.099Z,24.02
2022-08-20T12:41:48.679Z,24.31
2022-08-20T12:43:50.191Z,24.32
2022-08-20T12:45:52.104Z,24.36
2022-08-20T12:48:00.945Z,24.35
2022-08-20T12:50:07.919Z,24.51
2022-08-20T12:52:09.647Z,24.34
2022-08-20T12:54:11.175Z,24.13
2022-08-20T12:56:12.706Z,24.03
2022-08-20T12:58:14.372Z,23.85
2022-08-20T13:00:24.240Z,23.76
2022-08-20T13:02:26.609Z,23.81
2022-08-20T13:04:28.114Z,23.98
2022-08-20T13:06:29.597Z,24.04
2022-08-20T13:08:31.352Z,23.95
2022-08-20T13:10:35.084Z,23.88
2022-08-20T13:12:36.606Z,23.81
2022-08-20T13:14:38.684Z,23.81
2022-08-20T13:16:40.276Z,23.88
2022-08-20T13:18:41.758Z,24.04
2022-08-20T13:20:43.456Z,24.10
2022-08-20T13:22:45.583Z,24.19
2022-08-20T13:24:47.123Z,24.03
2022-08-20T13:26:49.580Z,23.73
2022-08-20T13:28:51.121Z,23.68
2022-08-20T13:30:52.624Z,23.64
2022-08-20T13:32:54.660Z,23.55
2022-08-20T13:34:56.282Z,23.62
2022-08-20T13:36:57.840Z,23.85
2022-08-20T13:38:59.305Z,23.88
2022-08-20T13:41:00.884Z,24.04
2022-08-20T13:43:06.735Z,24.05
2022-08-20T13:45:09.271Z,24.28
2022-08-20T13:47:25.734Z,24.27
2022-08-20T13:49:27.371Z,23.88
2022-08-20T13:51:35.300Z,23.56
2022-08-20T13:53:37.811Z,23.35
2022-08-20T13:55:39.387Z,23.29
2022-08-20T13:57:41.445Z,23.35
2022-08-20T13:59:45.741Z,23.33
2022-08-20T14:01:47.305Z,23.27
2022-08-20T14:03:48.872Z,23.09
2022-08-20T14:05:50.376Z,23.01
2022-08-20T14:07:52.198Z,22.94
2022-08-20T14:10:15.881Z,23.06
2022-08-20T14:12:17.727Z,23.26
2022-08-20T14:14:19.281Z,23.37
2022-08-20T14:16:27.637Z,23.43
2022-08-20T14:18:30.821Z,23.49
2022-08-20T14:20:33.876Z,23.51
2022-08-20T14:22:36.821Z,23.62
2022-08-20T14:24:38.540Z,23.67
2022-08-20T14:26:40.133Z,23.64
2022-08-20T14:28:41.871Z,23.59
2022-08-20T14:30:43.636Z,23.55
2022-08-20T14:32:45.310Z,23.54
2022-08-20T14:34:46.886Z,23.63
2022-08-20T14:36:48.399Z,23.70
2022-08-20T14:38:52.189Z,23.61
2022-08-20T14:40:53.764Z,23.43
2022-08-20T14:42:56.054Z,23.57
2022-08-20T14:45:06.267Z,23.38
2022-08-20T14:47:32.225Z,23.22
2022-08-20T14:49:33.718Z,23.24
2022-08-20T14:51:35.456Z,23.27
2022-08-20T14:53:40.454Z,23.32
2022-08-20T14:55:42.359Z,23.26
2022-08-20T14:57:44.609Z,23.31
2022-08-20T14:59:47.051Z,23.32
2022-08-20T15:01:48.535Z,23.32
2022-08-20T15:03:50.052Z,23.38
2022-08-20T15:05:52.672Z,23.41
2022-08-20T15:07:56.796Z,23.30
2022-08-20T15:10:00.433Z,23.31
2022-08-20T15:12:02.316Z,23.26
2022-08-20T15:14:03.828Z,23.43
2022-08-20T15:16:05.457Z,23.55
2022-08-20T15:18:07.203Z,23.63
2022-08-20T15:20:20.258Z,23.57
2022-08-20T15:22:23.334Z,23.56
2022-08-20T15:24:24.827Z,23.64
2022-08-20T15:26:26.357Z,23.69
2022-08-20T15:28:28.031Z,23.73
2022-08-20T15:30:31.091Z,23.61
2022-08-20T15:32:32.733Z,23.37
2022-08-20T15:34:38.929Z,23.29
2022-08-20T15:36:41.521Z,23.26
2022-08-20T15:38:43.157Z,23.36
2022-08-20T15:40:44.655Z,23.35
2022-08-20T15:42:46.791Z,23.34
2022-08-20T15:44:48.660Z,23.27
2022-08-20T15:46:50.171Z,23.19
2022-08-20T15:48:51.940Z,23.30
2022-08-20T15:50:53.421Z,23.42
2022-08-20T15:52:56.402Z,23.48
2022-08-20T15:54:58.353Z,23.47
2022-08-20T15:57:12.025Z,23.53
2022-08-20T15:59:29.136Z,23.58
2022-08-20T16:01:57.909Z,23.42
2022-08-20T16:04:22.265Z,23.36
2022-08-20T16:06:28.204Z,23.52
2022-08-20T16:08:53.942Z,23.51
2022-08-20T16:11:01.476Z,23.42
2022-08-20T16:13:09.574Z,23.53
2022-08-20T16:15:24.451Z,23.53
2022-08-20T16:17:40.256Z,23.55
2022-08-20T16:20:09.062Z,23.57
2022-08-20T16:22:16.106Z,23.52
2022-08-20T16:24:19.805Z,23.38
2022-08-20T16:26:43.907Z,23.47
2022-08-20T16:29:17.511Z,23.52
2022-08-20T16:31:22.522Z,23.35
2022-08-20T16:33:47.510Z,23.19
2022-08-20T16:35:54.741Z,23.01
2022-08-20T16:38:05.853Z,22.97
2022-08-20T16:40:19.407Z,23.12
2022-08-20T16:42:25.552Z,23.18
2022-08-20T16:44:33.037Z,23.16
2022-08-20T16:46:42.242Z,23.09
2022-08-20T16:48:58.221Z,23.15
2022-08-20T16:51:08.755Z,23.24
2022-08-20T16:53:18.113Z,23.31
2022-08-20T16:55:23.083Z,23.22
2022-08-20T16:57:27.744Z,23.14
2022-08-20T16:59:29.709Z,22.96
2022-08-20T17:01:31.389Z,22.98
2022-08-20T17:03:39.469Z,22.96
2022-08-20T17:05:47.197Z,22.98
2022-08-20T17:07:52.832Z,23.10
2022-08-20T17:10:09.287Z,23.11
2022-08-20T17:12:23.924Z,23.11
2022-08-20T17:14:25.482Z,23.23
2022-08-20T17:16:37.293Z,23.18
2022-08-20T17:18:41.477Z,23.19
2022-08-20T17:20:45.284Z,23.26
2022-08-20T17:22:53.774Z,23.17
2022-08-20T17:24:57.060Z,23.14
2022-08-20T17:27:02.904Z,23.11
2022-08-20T17:29:20.226Z,23.10
2022-08-20T17:31:43.222Z,23.23
2022-08-20T17:33:45.127Z,23.17
2022-08-20T17:36:04.279Z,23.09
2022-08-20T17:38:06.129Z,23.04
2022-08-20T17:40:11.165Z,23.11
2022-08-20T17:42:19.773Z,23.12
2022-08-20T17:44:34.705Z,23.04
2022-08-20T17:46:43.875Z,22.91
2022-08-20T17:48:48.531Z,22.80
2022-08-20T17:50:52.335Z,22.76
2022-08-20T17:52:58.814Z,22.79
2022-08-20T17:55:02.724Z,22.81
2022-08-20T17:57:14.133Z,22.77
2022-08-20T18:00:00.369Z,22.67
2022-08-20T18:01:46.683Z,22.53
2022-08-20T18:03:53.273Z,22.53
2022-08-20T18:06:02.193Z,22.48
2022-08-20T18:08:16.480Z,22.42
2022-08-20T18:10:23.524Z,22.37
2022-08-20T18:12:36.865Z,22.32
2022-08-20T18:14:57.048Z,22.30
2022-08-20T18:17:29.563Z,22.28
2022-08-20T18:19:52.182Z,22.20
2022-08-20T18:22:05.635Z,22.12
2022-08-20T18:24:18.525Z,22.11
2022-08-20T18:26:46.319Z,22.07
2022-08-20T18:28:56.573Z,22.00
2022-08-20T18:31:01.865Z,21.96
2022-08-20T18:33:08.369Z,21.91
2022-08-20T18:35:22.286Z,21.86
2022-08-20T18:37:27.571Z,21.81
2022-08-20T18:39:34.937Z,21.78
2022-08-20T18:41:55.006Z,21.76
2022-08-20T18:44:04.266Z,21.68
2022-08-20T18:46:18.656Z,21.63
2022-08-20T18:48:23.051Z,21.59
2022-08-20T18:50:30.409Z,21.54
2022-08-20T18:52:35.329Z,21.48
2022-08-20T18:54:37.950Z,21.41
2022-08-20T18:56:42.689Z,21.36
2022-08-20T18:58:57.889Z,21.31
2022-08-20T19:01:03.438Z,21.26
2022-08-20T19:03:07.760Z,21.23
2022-08-20T19:05:12.157Z,21.21
2022-08-20T19:07:16.045Z,21.18
2022-08-20T19:09:26.316Z,21.12
2022-08-20T19:11:53.497Z,21.05
2022-08-20T19:14:22.561Z,20.96
2022-08-20T19:16:43.955Z,20.90
2022-08-20T19:18:54.289Z,20.84
2022-08-20T19:20:59.040Z,20.76
2022-08-20T19:23:06.751Z,20.68
2022-08-20T19:25:09.101Z,20.63
2022-08-20T19:27:12.578Z,20.58
2022-08-20T19:29:19.852Z,20.52
2022-08-20T19:31:25.324Z,20.46
2022-08-20T19:33:30.005Z,20.42
2022-08-20T19:35:32.459Z,20.36
2022-08-20T19:37:51.038Z,20.29
2022-08-20T19:39:54.010Z,20.25
2022-08-20T19:42:22.358Z,20.20
2022-08-20T19:44:25.601Z,20.14
2022-08-20T19:46:40.078Z,20.12
2022-08-20T19:48:48.148Z,20.06
2022-08-20T19:51:04.874Z,20.02
2022-08-20T19:53:30.361Z,19.98
2022-08-20T19:55:35.649Z,19.94
2022-08-20T19:57:37.140Z,19.91
2022-08-20T19:59:51.567Z,19.86
2022-08-20T20:02:00.044Z,19.82
2022-08-20T20:04:03.264Z,19.77
2022-08-20T20:06:20.259Z,19.73
2022-08-20T20:08:24.035Z,19.66
2022-08-20T20:10:35.650Z,19.63
2022-08-20T20:12:39.531Z,19.57
2022-08-20T20:14:41.407Z,19.53
2022-08-20T20:16:45.403Z,19.49
2022-08-20T20:19:03.776Z,19.44
2022-08-20T20:21:23.921Z,19.35
2022-08-20T20:23:45.474Z,19.29
2022-08-20T20:25:56.015Z,19.11
2022-08-20T20:28:11.765Z,19.05
2022-08-20T20:30:14.025Z,19.05
2022-08-20T20:32:24.437Z,19.04
2022-08-20T20:34:36.096Z,19.03
2022-08-20T20:37:13.121Z,18.97
2022-08-20T20:39:28.733Z,18.91
2022-08-20T20:41:30.883Z,18.88
2022-08-20T20:43:34.425Z,18.83
2022-08-20T20:45:56.027Z,18.76
2022-08-20T20:47:58.202Z,18.72
2022-08-20T20:50:05.523Z,18.72
2022-08-20T20:52:19.844Z,18.71
2022-08-20T20:54:26.712Z,18.68
2022-08-20T20:56:32.911Z,18.65
2022-08-20T20:58:34.655Z,18.64
2022-08-20T21:00:36.320Z,18.61
2022-08-20T21:02:38.091Z,18.54
2022-08-20T21:04:42.619Z,18.44
2022-08-20T21:06:44.517Z,18.35
2022-08-20T21:08:46.009Z,18.27
2022-08-20T21:10:48.963Z,18.22
2022-08-20T21:12:53.126Z,18.19
2022-08-20T21:14:54.981Z,18.18
2022-08-20T21:17:00.128Z,18.14
2022-08-20T21:19:05.589Z,18.13
2022-08-20T21:21:08.795Z,18.11
2022-08-20T21:23:10.376Z,18.10
2022-08-20T21:25:12.396Z,18.06
2022-08-20T21:27:14.170Z,18.03
2022-08-20T21:29:18.689Z,18.00
2022-08-20T21:31:20.277Z,17.96
2022-08-20T21:33:22.537Z,17.89
2022-08-20T21:35:24.160Z,17.83
2022-08-20T21:37:25.696Z,17.75
2022-08-20T21:39:27.208Z,17.72
2022-08-20T21:41:30.148Z,17.70
2022-08-20T21:43:32.738Z,17.68
2022-08-20T21:45:34.954Z,17.60
2022-08-20T21:47:36.606Z,17.55
2022-08-20T21:49:38.082Z,17.49
2022-08-20T21:51:39.674Z,17.45
2022-08-20T21:53:41.198Z,17.45
2022-08-20T21:55:42.697Z,17.42
2022-08-20T21:57:46.686Z,17.37
2022-08-20T21:59:49.016Z,17.28
2022-08-20T22:01:51.395Z,17.23
2022-08-20T22:03:52.965Z,17.21
2022-08-20T22:05:55.041Z,17.20
2022-08-20T22:07:56.537Z,17.22
2022-08-20T22:09:58.041Z,17.20
2022-08-20T22:12:03.749Z,17.12
2022-08-20T22:14:08.315Z,17.06
2022-08-20T22:16:12.917Z,17.04
2022-08-20T22:18:16.460Z,17.02
2022-08-20T22:20:18.102Z,17.04
2022-08-20T22:22:20.804Z,17.06
2022-08-20T22:24:23.513Z,17.07
2022-08-20T22:26:27.210Z,17.06
2022-08-20T22:28:29.009Z,17.06
2022-08-20T22:30:31.417Z,17.05
2022-08-20T22:32:46.859Z,17.02
2022-08-20T22:34:53.748Z,16.96
2022-08-20T22:36:57.273Z,16.94
2022-08-20T22:38:58.872Z,16.98
2022-08-20T22:41:00.454Z,17.00
2022-08-20T22:43:02.061Z,17.00
2022-08-20T22:45:03.810Z,16.99
2022-08-20T22:47:08.084Z,16.97
2022-08-20T22:49:13.171Z,16.95
2022-08-20T22:51:27.795Z,16.92
2022-08-20T22:53:30.305Z,16.86
2022-08-20T22:55:31.794Z,16.81
2022-08-20T22:57:34.211Z,16.78
2022-08-20T22:59:46.360Z,16.77
2022-08-20T23:01:52.818Z,16.75
2022-08-20T23:03:57.296Z,16.70
2022-08-20T23:05:58.867Z,16.70
2022-08-20T23:08:01.206Z,16.68
2022-08-20T23:10:04.308Z,16.64
2022-08-20T23:12:06.289Z,16.60
2022-08-20T23:14:07.769Z,16.54
2022-08-20T23:16:09.266Z,16.46
2022-08-20T23:18:15.793Z,16.38
2022-08-20T23:20:18.346Z,16.30
2022-08-20T23:22:20.292Z,16.25
2022-08-20T23:24:22.097Z,16.23
2022-08-20T23:26:23.675Z,16.18
2022-08-20T23:28:26.273Z,16.15
2022-08-20T23:30:28.073Z,16.09
2022-08-20T23:32:29.616Z,16.12
2022-08-20T23:34:31.149Z,16.16
2022-08-20T23:36:34.061Z,16.20
2022-08-20T23:38:36.327Z,16.23
2022-08-20T23:40:38.018Z,16.25
2022-08-20T23:42:39.719Z,16.25
2022-08-20T23:44:41.364Z,16.24
2022-08-20T23:46:43.083Z,16.22
2022-08-20T23:48:44.963Z,16.22
2022-08-20T23:50:46.547Z,16.20
2022-08-20T23:52:48.566Z,16.18
2022-08-20T23:54:50.986Z,16.15
2022-08-20T23:56:57.059Z,16.11
2022-08-20T23:58:59.129Z,16.02
